Time;durP1;ratioP1;P1;durP2;ratioP2;P2;SDS_P1;SDS_P2;PMS_P1;PMS_P2;Temp;Humidity;BMP_temperature;BMP_pressure;BME280_temperature;BME280_humidity;BME280_pressure;Samples;Min_cycle;Max_cycle;Signal;HPM_P1;HPM_P2
2022/02/16 00:00:10;;;;;;;22.52;14.38;;;8.00;66.00;;;;;;5040513;28;20036;-71
2022/02/16 00:02:38;;;;;;;19.50;14.05;;;8.00;66.20;;;;;;5067080;28;20035;-71
2022/02/16 00:05:08;;;;;;;27.67;14.15;;;8.00;66.40;;;;;;5055164;28;20032;-71
2022/02/16 00:07:34;;;;;;;20.15;13.30;;;7.90;66.40;;;;;;5055435;28;20036;-71
2022/02/16 00:10:01;;;;;;;21.50;13.23;;;7.90;66.50;;;;;;5070970;28;20074;-70
2022/02/16 00:12:26;;;;;;;20.20;14.30;;;7.90;66.60;;;;;;5073099;28;20031;-71
2022/02/16 00:14:52;;;;;;;22.52;14.30;;;7.90;66.70;;;;;;5055029;28;20048;-70
2022/02/16 00:17:18;;;;;;;20.88;14.25;;;7.90;67.60;;;;;;5073092;28;20474;-70
2022/02/16 00:19:44;;;;;;;23.85;15.13;;;7.90;66.90;;;;;;5069333;28;20051;-71
2022/02/16 00:22:10;;;;;;;19.75;13.70;;;7.80;66.80;;;;;;5052633;28;20032;-73
2022/02/16 00:24:35;;;;;;;19.38;13.85;;;7.80;66.80;;;;;;5052627;28;20024;-71
2022/02/16 00:27:01;;;;;;;20.13;13.82;;;7.80;66.90;;;;;;5034994;28;20036;-73
2022/02/16 00:29:27;;;;;;;21.23;14.35;;;7.70;66.80;;;;;;5064647;28;20184;-72
2022/02/16 00:31:53;;;;;;;17.65;12.20;;;7.70;66.80;;;;;;5052616;28;20021;-71
2022/02/16 00:34:19;;;;;;;17.23;11.63;;;7.70;66.80;;;;;;5059445;28;20045;-71
2022/02/16 00:36:45;;;;;;;15.60;10.68;;;7.70;66.60;;;;;;5073946;28;20020;-71
2022/02/16 00:39:10;;;;;;;17.15;11.20;;;7.60;66.40;;;;;;5077256;28;20056;-71
2022/02/16 00:41:36;;;;;;;23.30;12.27;;;7.60;66.30;;;;;;5086709;28;20541;-71
2022/02/16 00:44:03;;;;;;;17.80;12.48;;;7.60;66.30;;;;;;5097310;28;20379;-71
2022/02/16 00:46:30;;;;;;;21.20;15.23;;;7.50;66.20;;;;;;5077377;28;20075;-71
2022/02/16 00:48:56;;;;;;;17.27;13.05;;;7.50;66.40;;;;;;5061101;28;20060;-71
2022/02/16 00:51:22;;;;;;;19.98;13.88;;;7.50;66.60;;;;;;5078740;28;20093;-71
2022/02/16 00:53:47;;;;;;;18.88;12.63;;;7.50;67.00;;;;;;5097016;28;20419;-71
2022/02/16 00:56:14;;;;;;;17.42;12.00;;;7.50;67.10;;;;;;5097397;28;20107;-71
2022/02/16 00:58:40;;;;;;;15.82;11.30;;;7.50;67.30;;;;;;5096632;28;20047;-70
2022/02/16 01:01:05;;;;;;;16.17;11.75;;;7.60;67.50;;;;;;5079155;28;20444;-71
2022/02/16 01:03:31;;;;;;;16.23;11.65;;;7.60;67.50;;;;;;5076504;28;20117;-70
2022/02/16 01:05:57;;;;;;;16.95;12.15;;;7.70;67.50;;;;;;5058603;28;20426;-71
2022/02/16 01:08:23;;;;;;;15.27;11.45;;;7.70;67.30;;;;;;5076627;28;20029;-71
2022/02/16 01:10:50;;;;;;;15.07;10.70;;;7.70;67.00;;;;;;5076685;28;20046;-71
2022/02/16 01:13:16;;;;;;;15.13;10.77;;;7.80;66.90;;;;;;5058571;28;20036;-71
2022/02/16 01:15:42;;;;;;;15.50;11.82;;;7.80;66.80;;;;;;5058427;28;20028;-70
2022/02/16 01:18:08;;;;;;;16.35;11.25;;;7.80;66.80;;;;;;5075947;28;20032;-70
2022/02/16 01:20:33;;;;;;;14.60;10.55;;;7.80;66.60;;;;;;5058499;28;20462;-73
2022/02/16 01:22:59;;;;;;;17.50;12.25;;;7.80;66.30;;;;;;5061048;28;20128;-70
2022/02/16 01:25:25;;;;;;;17.88;11.07;;;7.70;66.10;;;;;;5057785;28;20043;-70
2022/02/16 01:27:51;;;;;;;15.13;11.52;;;7.70;65.80;;;;;;5058147;28;20029;-70
2022/02/16 01:30:17;;;;;;;15.43;11.27;;;7.60;65.60;;;;;;5077797;28;20066;-70
2022/02/16 01:32:42;;;;;;;15.02;10.73;;;7.50;65.40;;;;;;5081861;28;20113;-70
2022/02/16 01:35:08;;;;;;;15.38;10.38;;;7.50;65.30;;;;;;5065571;28;20049;-70
2022/02/16 01:37:34;;;;;;;14.98;10.90;;;7.40;65.20;;;;;;5077741;28;20391;-70
2022/02/16 01:40:00;;;;;;;14.07;9.70;;;7.30;65.10;;;;;;5088312;28;20035;-70
2022/02/16 01:42:26;;;;;;;14.43;9.27;;;7.30;65.20;;;;;;5096206;28;20367;-70
2022/02/16 01:44:52;;;;;;;15.68;11.20;;;7.20;65.30;;;;;;5080212;28;20429;-70
2022/02/16 01:47:17;;;;;;;14.82;10.60;;;7.10;65.30;;;;;;5057584;28;20379;-70
2022/02/16 01:49:44;;;;;;;15.52;11.05;;;7.10;65.40;;;;;;5074536;28;20059;-70
2022/02/16 01:52:10;;;;;;;16.13;11.98;;;7.00;65.40;;;;;;5079959;28;20067;-70
2022/02/16 01:54:37;;;;;;;15.77;10.65;;;7.00;65.50;;;;;;5057741;28;20439;-70
2022/02/16 01:57:05;;;;;;;12.82;9.43;;;6.90;65.50;;;;;;5074294;28;20391;-70
2022/02/16 01:59:31;;;;;;;23.83;11.80;;;6.80;65.50;;;;;;5067381;28;20032;-70
2022/02/16 02:01:57;;;;;;;15.57;10.63;;;6.80;65.60;;;;;;5057587;28;20028;-70
2022/02/16 02:04:23;;;;;;;19.90;12.05;;;6.80;65.90;;;;;;5062352;28;20035;-70
2022/02/16 02:06:49;;;;;;;19.33;10.93;;;6.70;66.00;;;;;;5077557;28;20379;-70
2022/02/16 02:09:15;;;;;;;20.50;13.98;;;6.70;66.10;;;;;;5075488;28;20021;-70
2022/02/16 02:11:42;;;;;;;21.85;11.95;;;6.70;66.30;;;;;;5087026;28;20082;-71
2022/02/16 02:14:09;;;;;;;18.27;11.88;;;6.60;66.30;;;;;;5095065;28;20483;-70
2022/02/16 02:16:40;;;;;;;34.47;13.38;;;6.60;66.40;;;;;;5077262;28;20020;-72
2022/02/16 02:19:07;;;;;;;29.67;11.30;;;6.60;66.60;;;;;;5076566;28;20174;-71
2022/02/16 02:21:33;;;;;;;38.13;11.70;;;6.60;66.70;;;;;;5077125;28;20028;-71
2022/02/16 02:24:00;;;;;;;22.45;11.80;;;6.60;66.80;;;;;;5094898;28;20474;-71
2022/02/16 02:26:26;;;;;;;16.10;11.75;;;6.60;66.90;;;;;;5076543;28;20028;-71
2022/02/16 02:28:52;;;;;;;18.15;13.68;;;6.60;66.90;;;;;;5076584;28;20032;-71
2022/02/16 02:31:32;;;;;;;30.95;15.00;;;6.60;67.10;;;;;;5075079;28;20346;-71
2022/02/16 02:33:59;;;;;;;28.83;14.98;;;6.50;67.30;;;;;;5056560;28;20057;-70
2022/02/16 02:36:25;;;;;;;40.05;12.95;;;6.60;67.60;;;;;;5056912;28;20392;-70
2022/02/16 02:38:51;;;;;;;32.80;12.80;;;6.60;67.80;;;;;;5056837;28;20024;-71
2022/02/16 02:41:17;;;;;;;45.17;13.95;;;6.60;68.00;;;;;;5061374;28;20358;-70
2022/02/16 02:43:45;;;;;;;25.50;12.13;;;6.70;68.30;;;;;;5066460;28;20021;-71
2022/02/16 02:46:11;;;;;;;20.50;11.45;;;6.70;68.30;;;;;;5092446;28;20024;-70
2022/02/16 02:48:37;;;;;;;25.65;12.18;;;6.70;68.30;;;;;;5076743;28;20024;-70
2022/02/16 02:51:03;;;;;;;34.97;13.20;;;6.80;68.40;;;;;;5090866;28;20089;-71
2022/02/16 02:53:29;;;;;;;21.40;12.90;;;6.80;68.30;;;;;;5094728;28;20107;-71
2022/02/16 02:55:55;;;;;;;17.90;13.15;;;6.80;68.30;;;;;;5076578;28;20036;-70
2022/02/16 02:58:21;;;;;;;42.78;14.32;;;6.80;68.30;;;;;;5075366;28;20032;-70
2022/02/16 03:00:48;;;;;;;24.10;13.00;;;6.90;68.40;;;;;;5075842;28;20058;-71
2022/02/16 03:03:14;;;;;;;30.35;11.85;;;6.90;68.30;;;;;;5094353;28;20028;-71
2022/02/16 03:05:40;;;;;;;26.00;11.52;;;6.90;68.20;;;;;;5094541;28;20028;-71
2022/02/16 03:08:05;;;;;;;16.17;11.73;;;6.90;68.20;;;;;;5094552;28;20028;-70
2022/02/16 03:10:32;;;;;;;28.45;11.77;;;7.00;68.30;;;;;;5083406;28;20168;-70
2022/02/16 03:12:58;;;;;;;20.33;11.43;;;7.00;68.40;;;;;;5076097;28;20020;-69
2022/02/16 03:15:24;;;;;;;29.33;11.20;;;7.00;68.40;;;;;;5075226;28;20127;-70
2022/02/16 03:17:49;;;;;;;29.92;11.45;;;7.10;68.50;;;;;;5064113;28;20027;-69
2022/02/16 03:20:15;;;;;;;37.50;11.02;;;7.10;68.60;;;;;;5074356;28;20025;-70
2022/02/16 03:22:42;;;;;;;16.42;11.45;;;7.10;68.50;;;;;;5056119;28;20083;-71
2022/02/16 03:25:10;;;;;;;35.47;12.23;;;7.10;68.40;;;;;;5056086;28;20028;-70
2022/02/16 03:27:37;;;;;;;41.00;14.63;;;7.20;68.40;;;;;;5056285;28;20086;-70
2022/02/16 03:30:06;;;;;;;62.70;14.77;;;7.20;68.40;;;;;;5064231;28;20489;-69
2022/02/16 03:32:32;;;;;;;25.83;12.48;;;7.20;68.30;;;;;;5093804;28;20027;-70
2022/02/16 03:34:58;;;;;;;29.45;11.85;;;7.20;68.20;;;;;;5093663;28;20127;-70
2022/02/16 03:37:24;;;;;;;28.50;12.25;;;7.20;68.20;;;;;;5075780;28;20119;-70
2022/02/16 03:39:49;;;;;;;22.10;11.32;;;7.20;68.20;;;;;;5087278;28;20025;-70
2022/02/16 03:42:15;;;;;;;17.38;12.10;;;7.20;68.20;;;;;;5066325;28;20069;-71
2022/02/16 03:44:42;;;;;;;16.95;12.07;;;7.20;68.10;;;;;;5093970;28;20028;-69
2022/02/16 03:47:08;;;;;;;16.83;11.50;;;7.30;68.20;;;;;;5090273;28;20024;-70
2022/02/16 03:49:33;;;;;;;27.52;11.73;;;7.30;68.20;;;;;;5069029;28;20028;-71
2022/02/16 03:51:59;;;;;;;59.47;13.77;;;7.30;68.20;;;;;;5084780;28;20082;-71
2022/02/16 03:54:25;;;;;;;51.28;13.10;;;7.40;68.30;;;;;;5093424;28;20032;-70
2022/02/16 03:56:51;;;;;;;22.33;13.23;;;7.30;68.00;;;;;;5093448;28;20025;-71
2022/02/16 03:59:17;;;;;;;25.58;11.82;;;7.30;67.80;;;;;;5090790;28;20057;-71
2022/02/16 04:01:43;;;;;;;23.38;13.27;;;7.40;68.00;;;;;;5073366;28;20119;-71
2022/02/16 04:04:09;;;;;;;36.17;13.32;;;7.40;68.00;;;;;;5055345;28;20055;-71
2022/02/16 04:06:35;;;;;;;20.00;12.75;;;7.40;67.80;;;;;;5086280;28;20081;-71
2022/02/16 04:09:01;;;;;;;38.00;14.25;;;7.40;67.80;;;;;;5093582;28;20020;-71
2022/02/16 04:11:27;;;;;;;39.33;14.70;;;7.40;67.80;;;;;;5083095;28;20032;-70
2022/02/16 04:13:54;;;;;;;32.67;16.15;;;7.40;67.80;;;;;;5093385;28;20023;-70
2022/02/16 04:16:22;;;;;;;42.58;14.82;;;7.40;67.70;;;;;;5093484;28;20084;-70
2022/02/16 04:18:48;;;;;;;19.30;12.15;;;7.40;67.80;;;;;;5092632;28;20035;-70
2022/02/16 04:21:13;;;;;;;34.28;14.60;;;7.40;68.00;;;;;;5076426;28;20510;-70
2022/02/16 04:23:42;;;;;;;32.35;14.77;;;7.50;68.20;;;;;;5054722;28;20024;-70
2022/02/16 04:26:09;;;;;;;47.10;14.02;;;7.50;68.30;;;;;;5073358;28;20025;-70
2022/02/16 04:28:35;;;;;;;79.80;14.90;;;7.50;68.30;;;;;;5055069;28;20024;-71
2022/02/16 04:31:00;;;;;;;50.47;14.82;;;7.60;68.40;;;;;;5072883;28;20448;-70
2022/02/16 04:33:26;;;;;;;32.35;14.25;;;7.60;68.40;;;;;;5073334;28;20028;-70
2022/02/16 04:35:52;;;;;;;29.42;14.23;;;7.60;68.40;;;;;;5055019;28;20123;-70
2022/02/16 04:38:18;;;;;;;35.33;15.13;;;7.60;68.40;;;;;;5073506;28;20025;-70
2022/02/16 04:40:44;;;;;;;37.25;14.15;;;7.60;68.40;;;;;;5066926;28;20123;-70
2022/02/16 04:43:10;;;;;;;32.85;13.68;;;7.70;68.50;;;;;;5075105;28;20034;-71
2022/02/16 04:45:36;;;;;;;57.25;13.90;;;7.70;68.50;;;;;;5075248;28;20518;-70
2022/02/16 04:48:03;;;;;;;35.45;16.08;;;7.70;68.60;;;;;;5093162;28;20082;-70
2022/02/16 04:50:28;;;;;;;36.30;14.02;;;7.80;68.50;;;;;;5071367;28;20414;-70
2022/02/16 04:52:55;;;;;;;22.95;14.60;;;7.80;68.50;;;;;;5088004;28;20032;-70
2022/02/16 04:55:25;;;;;;;29.50;15.20;;;7.80;68.50;;;;;;5074360;28;20088;-70
2022/02/16 04:57:52;;;;;;;25.45;15.75;;;7.80;68.50;;;;;;5074259;28;20111;-71
2022/02/16 05:00:19;;;;;;;36.88;16.23;;;7.90;68.50;;;;;;5092283;28;20035;-70
2022/02/16 05:02:46;;;;;;;38.38;16.35;;;7.90;68.40;;;;;;5074850;28;20043;-70
2022/02/16 05:05:12;;;;;;;66.05;19.73;;;7.90;68.30;;;;;;5074644;28;20035;-69
2022/02/16 05:07:38;;;;;;;31.38;17.05;;;7.90;68.10;;;;;;5093063;28;20452;-70
2022/02/16 05:10:05;;;;;;;28.23;16.95;;;7.90;67.90;;;;;;5062454;28;20021;-71
2022/02/16 05:12:32;;;;;;;30.98;15.60;;;7.90;68.00;;;;;;5043751;28;20033;-70
2022/02/16 05:15:00;;;;;;;42.70;17.95;;;7.90;68.10;;;;;;5088148;28;20030;-70
2022/02/16 05:17:27;;;;;;;45.80;21.42;;;8.00;68.10;;;;;;5058081;28;20077;-71
2022/02/16 05:19:53;;;;;;;46.22;20.00;;;7.90;68.00;;;;;;5068642;28;20028;-71
2022/02/16 05:22:19;;;;;;;28.58;19.05;;;7.90;67.80;;;;;;5073267;28;20128;-72
2022/02/16 05:24:45;;;;;;;39.45;20.70;;;8.00;67.70;;;;;;5088569;28;20032;-70
2022/02/16 05:27:11;;;;;;;33.15;18.40;;;7.90;67.60;;;;;;5076332;28;20036;-70
2022/02/16 05:29:36;;;;;;;35.97;20.05;;;7.90;67.50;;;;;;5063828;28;20029;-70
2022/02/16 05:32:03;;;;;;;33.70;19.30;;;7.90;67.50;;;;;;5078249;28;20035;-70
2022/02/16 05:34:29;;;;;;;47.78;20.00;;;7.90;67.40;;;;;;5095455;28;20100;-71
2022/02/16 05:36:58;;;;;;;43.63;21.05;;;7.90;67.40;;;;;;5076193;28;20032;-70
2022/02/16 05:39:24;;;;;;;33.63;18.80;;;7.90;67.30;;;;;;5079272;28;20224;-71
2022/02/16 05:41:51;;;;;;;29.80;17.77;;;7.90;68.00;;;;;;5096061;28;20031;-70
2022/02/16 05:44:17;;;;;;;30.88;16.70;;;7.90;67.40;;;;;;5096601;28;20024;-70
2022/02/16 05:46:43;;;;;;;29.10;17.58;;;7.90;67.50;;;;;;5096217;28;20035;-70
2022/02/16 05:49:10;;;;;;;29.92;17.33;;;7.90;67.60;;;;;;5094858;28;20024;-72
2022/02/16 05:51:36;;;;;;;29.95;19.10;;;7.90;67.60;;;;;;5075569;28;20494;-70
2022/02/16 05:54:03;;;;;;;34.80;19.70;;;7.90;67.40;;;;;;5075815;28;20024;-70
2022/02/16 05:56:32;;;;;;;47.13;23.48;;;7.90;67.20;;;;;;5075544;28;20380;-71
2022/02/16 05:58:58;;;;;;;62.15;23.40;;;7.90;67.10;;;;;;5075869;28;20021;-70
2022/02/16 06:01:24;;;;;;;50.60;22.90;;;7.90;66.90;;;;;;5069984;28;20044;-69
2022/02/16 06:03:50;;;;;;;45.55;21.27;;;7.90;66.70;;;;;;5075730;28;20035;-70
2022/02/16 06:06:18;;;;;;;52.83;21.08;;;7.90;66.60;;;;;;5075677;28;20024;-71
2022/02/16 06:08:46;;;;;;;27.52;17.45;;;7.80;66.50;;;;;;5075607;28;20103;-70
2022/02/16 06:11:14;;;;;;;30.23;17.63;;;7.80;66.40;;;;;;5055138;28;20090;-70
2022/02/16 06:13:41;;;;;;;30.40;17.77;;;7.80;66.50;;;;;;5054182;28;20025;-71
2022/02/16 06:16:07;;;;;;;27.83;17.20;;;7.80;66.70;;;;;;5072127;28;20036;-71
2022/02/16 06:18:32;;;;;;;30.17;16.77;;;7.80;66.90;;;;;;5087314;28;20084;-70
2022/02/16 06:20:58;;;;;;;28.33;17.50;;;7.80;66.90;;;;;;5079774;28;20032;-70
2022/02/16 06:23:24;;;;;;;27.17;17.30;;;7.80;66.80;;;;;;5085536;28;20230;-70
2022/02/16 06:25:50;;;;;;;38.15;18.33;;;7.80;66.50;;;;;;5095457;28;20028;-71
2022/02/16 06:28:16;;;;;;;27.33;16.25;;;7.70;66.40;;;;;;5095465;28;20031;-74
2022/02/16 06:30:41;;;;;;;28.55;16.52;;;7.80;66.30;;;;;;5082498;28;20032;-70
2022/02/16 06:33:07;;;;;;;25.73;15.68;;;7.80;66.30;;;;;;5073949;28;20028;-70
2022/02/16 06:35:34;;;;;;;29.70;17.70;;;7.70;66.30;;;;;;5073724;28;20484;-70
2022/02/16 06:38:00;;;;;;;29.33;16.55;;;7.80;66.60;;;;;;5084806;28;20507;-70
2022/02/16 06:40:27;;;;;;;23.88;14.98;;;7.80;66.80;;;;;;5076675;28;20052;-71
2022/02/16 06:42:56;;;;;;;24.67;15.05;;;7.80;66.90;;;;;;5079493;28;20024;-71
2022/02/16 06:45:22;;;;;;;26.50;16.10;;;7.90;67.20;;;;;;5076998;28;20059;-70
2022/02/16 06:47:47;;;;;;;29.08;17.58;;;7.90;67.20;;;;;;5095294;28;20415;-71
2022/02/16 06:50:13;;;;;;;25.42;15.48;;;8.00;67.30;;;;;;5094674;28;20048;-71
2022/02/16 06:52:39;;;;;;;28.30;16.17;;;8.00;67.40;;;;;;5076482;28;20025;-70
2022/02/16 06:55:05;;;;;;;25.10;16.42;;;8.10;67.40;;;;;;5074475;28;20037;-70
2022/02/16 06:57:31;;;;;;;21.23;14.82;;;8.20;67.20;;;;;;5074007;28;20078;-70
2022/02/16 06:59:57;;;;;;;23.60;15.57;;;8.30;66.90;;;;;;5074517;28;20472;-70
2022/02/16 07:02:23;;;;;;;23.48;15.35;;;8.30;66.50;;;;;;5074466;28;20457;-70
2022/02/16 07:04:49;;;;;;;30.90;18.25;;;8.30;67.10;;;;;;5074326;28;20032;-73
2022/02/16 07:07:14;;;;;;;29.30;18.65;;;8.40;66.30;;;;;;5056445;28;20487;-70
2022/02/16 07:09:40;;;;;;;32.35;18.27;;;8.40;66.00;;;;;;5074610;28;20377;-70
2022/02/16 07:12:06;;;;;;;26.55;17.92;;;8.40;65.80;;;;;;5074303;28;20083;-70
2022/02/16 07:14:33;;;;;;;26.10;16.17;;;8.50;65.50;;;;;;5055924;28;20032;-71
2022/02/16 07:16:59;;;;;;;31.67;15.75;;;8.50;64.70;;;;;;5074278;28;20027;-70
2022/02/16 07:19:26;;;;;;;22.77;14.93;;;8.40;64.10;;;;;;5074245;28;20099;-71
2022/02/16 07:21:57;;;;;;;29.92;16.13;;;8.30;63.70;;;;;;5074324;28;20032;-70
2022/02/16 07:24:23;;;;;;;23.95;14.70;;;8.30;63.40;;;;;;5073749;28;20020;-70
2022/02/16 07:26:50;;;;;;;28.95;14.75;;;8.20;63.40;;;;;;5073934;28;20116;-71
2022/02/16 07:29:16;;;;;;;19.98;13.68;;;8.20;63.30;;;;;;5059121;28;20039;-70
2022/02/16 07:31:42;;;;;;;25.63;14.95;;;8.10;63.40;;;;;;5071812;28;20074;-70
2022/02/16 07:34:07;;;;;;;23.48;13.57;;;8.10;63.40;;;;;;5075648;28;20430;-70
2022/02/16 07:36:33;;;;;;;22.55;13.10;;;8.10;63.50;;;;;;5075857;28;20070;-70
2022/02/16 07:39:01;;;;;;;20.67;13.52;;;8.10;63.90;;;;;;5094183;28;20028;-70
2022/02/16 07:41:28;;;;;;;20.63;13.52;;;8.10;64.50;;;;;;5075545;28;20090;-70
2022/02/16 07:43:54;;;;;;;20.10;13.75;;;8.10;64.50;;;;;;5094102;28;20028;-70
2022/02/16 07:46:20;;;;;;;31.90;15.13;;;8.20;64.60;;;;;;5093921;28;20483;-70
2022/02/16 07:48:45;;;;;;;21.08;13.80;;;8.20;64.50;;;;;;5075748;28;20417;-70
2022/02/16 07:51:11;;;;;;;19.95;13.57;;;8.20;64.30;;;;;;5088843;28;20082;-70
2022/02/16 07:53:38;;;;;;;22.05;14.02;;;8.30;64.20;;;;;;5073319;28;20030;-71
2022/02/16 07:56:05;;;;;;;20.48;13.00;;;8.30;63.90;;;;;;5073698;28;20036;-70
2022/02/16 07:58:31;;;;;;;20.35;13.10;;;8.30;64.10;;;;;;5062746;28;20388;-70
2022/02/16 08:00:57;;;;;;;22.13;14.70;;;8.40;64.60;;;;;;5072961;28;20032;-70
2022/02/16 08:03:23;;;;;;;27.90;15.27;;;8.50;64.90;;;;;;5072102;28;20480;-70
2022/02/16 08:05:49;;;;;;;30.05;17.90;;;8.60;65.10;;;;;;5089941;28;20034;-70
2022/02/16 08:08:15;;;;;;;54.80;24.92;;;8.80;65.40;;;;;;5075092;28;20506;-70
2022/02/16 08:10:41;;;;;;;50.05;26.63;;;8.90;65.10;;;;;;5081462;28;20032;-73
2022/02/16 08:13:06;;;;;;;48.03;24.83;;;9.00;64.20;;;;;;5055307;28;20029;-71
2022/02/16 08:15:33;;;;;;;54.00;27.08;;;9.10;64.20;;;;;;5073347;28;20024;-72
2022/02/16 08:18:00;;;;;;;60.35;28.88;;;9.20;64.30;;;;;;5091957;28;20028;-70
2022/02/16 08:20:26;;;;;;;62.35;27.17;;;9.30;64.40;;;;;;5062570;28;20035;-70
2022/02/16 08:22:52;;;;;;;56.78;28.88;;;9.40;64.50;;;;;;5074096;28;20048;-70
2022/02/16 08:25:18;;;;;;;60.33;26.98;;;9.60;64.50;;;;;;5091746;28;20071;-70
2022/02/16 08:27:45;;;;;;;59.00;29.88;;;9.80;64.30;;;;;;5085375;28;20025;-72
2022/02/16 08:30:12;;;;;;;52.50;26.90;;;9.90;62.80;;;;;;5060629;28;20024;-71
2022/02/16 08:32:39;;;;;;;48.65;24.42;;;10.00;61.90;;;;;;5078080;28;20035;-71
2022/02/16 08:35:09;;;;;;;53.05;26.08;;;10.00;61.60;;;;;;5054655;28;20480;-70
2022/02/16 08:37:35;;;;;;;49.35;24.73;;;10.10;61.30;;;;;;5073219;28;20025;-71
2022/02/16 08:40:05;;;;;;;48.33;25.17;;;10.10;61.30;;;;;;5091955;28;20020;-70
2022/02/16 08:42:30;;;;;;;51.47;23.63;;;10.10;61.40;;;;;;5090663;28;20387;-72
2022/02/16 08:44:58;;;;;;;53.45;27.38;;;10.20;61.60;;;;;;5076013;28;20032;-70
2022/02/16 08:47:25;;;;;;;50.00;26.70;;;10.20;61.40;;;;;;5075748;28;20032;-70
2022/02/16 08:49:51;;;;;;;52.72;27.50;;;10.30;61.40;;;;;;5065796;28;20028;-70
2022/02/16 08:52:17;;;;;;;57.47;28.85;;;10.30;60.90;;;;;;5086247;28;20024;-70
2022/02/16 08:54:42;;;;;;;54.63;26.77;;;10.30;60.30;;;;;;5061247;28;20034;-71
2022/02/16 08:57:08;;;;;;;50.30;25.90;;;10.30;60.10;;;;;;5079469;28;20021;-70
2022/02/16 08:59:34;;;;;;;58.45;28.00;;;10.30;60.10;;;;;;5086634;28;20033;-71
2022/02/16 09:02:01;;;;;;;57.00;28.55;;;10.30;60.10;;;;;;5082158;28;20108;-70
2022/02/16 09:04:27;;;;;;;58.90;27.60;;;10.20;60.00;;;;;;5084802;28;20431;-70
2022/02/16 09:09:37;;;;;;;55.60;26.38;;;10.10;60.30;;;;;;5080058;28;20034;-71
2022/02/16 09:12:05;;;;;;;52.97;25.42;;;10.00;60.50;;;;;;5078260;28;20028;-71
2022/02/16 09:14:33;;;;;;;49.88;23.67;;;10.00;60.70;;;;;;5091261;28;20032;-71
2022/02/16 09:17:00;;;;;;;36.92;19.65;;;9.90;61.00;;;;;;5078477;28;20112;-71
2022/02/16 09:19:26;;;;;;;36.70;20.27;;;9.90;61.10;;;;;;5063830;28;20448;-70
2022/02/16 09:21:52;;;;;;;32.47;18.52;;;9.90;61.10;;;;;;5077140;28;20051;-72
2022/02/16 09:24:19;;;;;;;25.27;15.45;;;9.90;61.20;;;;;;5095159;28;20032;-73
2022/02/16 09:26:49;;;;;;;24.98;15.40;;;9.90;61.10;;;;;;5096593;28;20032;-71
2022/02/16 09:29:17;;;;;;;24.00;14.65;;;9.90;61.20;;;;;;5090747;28;20020;-71
2022/02/16 09:31:43;;;;;;;28.80;16.00;;;10.00;61.50;;;;;;5091813;28;20547;-71
2022/02/16 09:34:08;;;;;;;31.08;18.05;;;10.00;61.80;;;;;;5081489;28;20123;-71
2022/02/16 09:36:35;;;;;;;29.20;16.83;;;10.10;61.90;;;;;;5075161;28;20456;-71
2022/02/16 09:39:04;;;;;;;35.17;17.48;;;10.10;61.90;;;;;;5076456;28;20028;-70
2022/02/16 09:41:31;;;;;;;25.15;15.20;;;10.20;61.80;;;;;;5076100;28;20099;-70
2022/02/16 09:43:58;;;;;;;25.63;14.57;;;10.40;62.10;;;;;;5073724;28;20031;-73
2022/02/16 09:46:24;;;;;;;25.38;14.50;;;10.50;62.10;;;;;;5073751;28;20172;-71
2022/02/16 09:48:51;;;;;;;22.48;12.88;;;10.60;61.80;;;;;;5079416;28;20023;-74
2022/02/16 09:51:17;;;;;;;25.75;13.40;;;10.70;60.80;;;;;;5056180;28;20416;-71
2022/02/16 09:53:44;;;;;;;21.63;12.25;;;10.90;60.50;;;;;;5076454;28;20021;-72
2022/02/16 09:56:10;;;;;;;26.23;11.38;;;11.00;60.60;;;;;;5057854;28;20028;-70
2022/02/16 09:58:36;;;;;;;25.02;13.13;;;11.20;60.50;;;;;;5056150;28;20041;-70
2022/02/16 10:01:13;;;;;;;24.35;11.95;;;11.30;60.10;;;;;;5071965;28;20032;-70
2022/02/16 10:03:56;;;;;;;17.27;10.52;;;11.50;59.70;;;;;;5075671;28;20042;-70
2022/02/16 10:06:44;;;;;;;15.13;9.23;;;11.70;59.60;;;;;;5075527;28;20033;-70
2022/02/16 10:09:26;;;;;;;18.08;10.85;;;11.80;59.20;;;;;;5074564;28;20365;-70
2022/02/16 10:11:57;;;;;;;21.90;9.88;;;12.00;58.90;;;;;;5076006;28;20062;-71
2022/02/16 10:14:30;;;;;;;17.80;8.27;;;12.20;58.90;;;;;;5075896;28;20035;-70
2022/02/16 10:17:02;;;;;;;18.38;7.07;;;12.40;58.20;;;;;;5057550;28;20036;-70
2022/02/16 10:19:55;;;;;;;21.75;9.25;;;12.50;57.50;;;;;;5075367;28;20474;-70
2022/02/16 10:22:28;;;;;;;19.30;7.82;;;12.60;57.40;;;;;;5075553;28;20020;-70
2022/02/16 10:25:09;;;;;;;14.77;6.60;;;12.70;57.00;;;;;;5075383;28;20056;-70
2022/02/16 10:27:34;;;;;;;23.83;9.00;;;12.80;56.10;;;;;;5057408;28;20032;-70
2022/02/16 10:30:10;;;;;;;17.48;7.55;;;12.90;56.20;;;;;;5075297;28;20460;-70
2022/02/16 10:32:36;;;;;;;12.07;6.32;;;13.00;55.20;;;;;;5057147;28;20036;-70
2022/02/16 10:35:03;;;;;;;20.45;7.82;;;13.10;55.00;;;;;;5091074;28;20052;-70
2022/02/16 10:37:34;;;;;;;42.80;8.85;;;13.10;53.80;;;;;;5095411;28;20363;-70
2022/02/16 10:39:59;;;;;;;15.30;6.15;;;13.10;53.10;;;;;;5077146;28;20430;-70
2022/02/16 10:42:26;;;;;;;15.88;6.47;;;13.20;52.70;;;;;;5095264;28;20024;-70
2022/02/16 10:45:13;;;;;;;23.42;7.63;;;13.20;53.40;;;;;;5095253;28;20024;-70
2022/02/16 10:48:02;;;;;;;17.25;6.75;;;13.30;53.40;;;;;;5076646;28;20031;-70
2022/02/16 10:50:33;;;;;;;9.93;5.25;;;13.30;52.80;;;;;;5076983;28;20369;-70
2022/02/16 10:53:06;;;;;;;54.88;6.88;;;13.40;52.50;;;;;;5076876;28;20085;-70
2022/02/16 10:55:48;;;;;;;23.38;6.07;;;13.50;52.90;;;;;;5076532;28;20384;-70
2022/02/16 10:58:19;;;;;;;7.28;4.40;;;13.50;53.40;;;;;;5094940;28;20073;-70
2022/02/16 11:00:48;;;;;;;8.32;4.47;;;13.60;53.20;;;;;;5076728;28;20025;-70
2022/02/16 11:03:35;;;;;;;9.50;4.78;;;13.60;52.80;;;;;;5094559;28;20024;-70
2022/02/16 11:06:10;;;;;;;14.10;4.10;;;13.60;52.60;;;;;;5094648;28;20120;-70
2022/02/16 11:08:37;;;;;;;15.02;5.28;;;13.60;52.00;;;;;;5094746;28;20024;-70
2022/02/16 11:11:04;;;;;;;12.63;4.45;;;13.50;51.60;;;;;;5094701;28;20028;-70
2022/02/16 11:13:34;;;;;;;6.78;3.65;;;13.50;51.30;;;;;;5076385;28;20467;-71
2022/02/16 11:16:01;;;;;;;6.20;3.83;;;13.40;51.70;;;;;;5076290;28;20032;-70
2022/02/16 11:18:30;;;;;;;10.38;4.20;;;13.40;51.50;;;;;;5076420;28;20028;-70
2022/02/16 11:21:17;;;;;;;9.68;3.72;;;13.40;51.60;;;;;;5094128;28;20465;-70
2022/02/16 11:23:53;;;;;;;5.88;3.53;;;13.40;51.80;;;;;;5094379;28;20017;-71
2022/02/16 11:26:45;;;;;;;16.35;4.30;;;13.40;51.60;;;;;;5094336;28;20024;-71
2022/02/16 11:29:25;;;;;;;6.53;3.80;;;13.40;52.30;;;;;;5093873;28;20070;-70
2022/02/16 11:31:53;;;;;;;9.95;3.63;;;13.50;51.80;;;;;;5094225;28;20035;-70
2022/02/16 11:34:21;;;;;;;6.85;3.53;;;13.50;51.70;;;;;;5093208;28;20056;-71
2022/02/16 11:37:03;;;;;;;6.07;3.75;;;13.60;51.70;;;;;;5075671;28;20119;-70
2022/02/16 11:39:50;;;;;;;13.88;4.22;;;13.70;52.10;;;;;;5075847;28;20070;-70
2022/02/16 11:42:22;;;;;;;9.57;4.80;;;13.80;52.00;;;;;;5075821;28;20119;-70
2022/02/16 11:44:51;;;;;;;9.75;4.82;;;13.90;51.80;;;;;;5093666;28;20032;-70
2022/02/16 11:47:39;;;;;;;19.50;4.75;;;14.10;51.50;;;;;;5094205;28;20028;-70
2022/02/16 11:50:14;;;;;;;14.73;5.05;;;14.20;51.70;;;;;;5093686;28;20146;-70
2022/02/16 11:52:58;;;;;;;17.25;5.18;;;14.30;50.90;;;;;;5075660;28;20028;-70
2022/02/16 11:55:28;;;;;;;10.23;4.80;;;14.50;50.90;;;;;;5075596;28;20387;-70
2022/02/16 11:58:01;;;;;;;13.45;3.83;;;14.60;51.00;;;;;;5075637;28;20431;-73
2022/02/16 12:00:38;;;;;;;11.65;5.53;;;14.70;50.60;;;;;;5093797;28;20030;-70
2022/02/16 12:03:06;;;;;;;14.80;5.63;;;14.80;49.70;;;;;;5075345;28;20024;-70
2022/02/16 12:05:53;;;;;;;11.05;5.78;;;14.80;49.10;;;;;;5067508;28;20032;-71
2022/02/16 12:08:29;;;;;;;9.77;4.88;;;14.90;48.40;;;;;;5075545;28;20055;-72
2022/02/16 12:11:22;;;;;;;9.23;4.68;;;14.90;48.30;;;;;;5093680;28;20032;-70
2022/02/16 12:14:01;;;;;;;8.23;4.03;;;14.90;48.20;;;;;;5083215;28;20047;-70
2022/02/16 12:16:42;;;;;;;12.60;4.93;;;14.90;47.90;;;;;;5075428;28;20032;-70
2022/02/16 12:19:10;;;;;;;11.50;4.93;;;15.00;47.70;;;;;;5075387;28;20024;-70
2022/02/16 12:21:43;;;;;;;10.15;4.30;;;15.10;47.40;;;;;;5093395;28;20023;-70
2022/02/16 12:24:14;;;;;;;7.93;4.40;;;15.10;48.00;;;;;;5075517;28;20111;-71
2022/02/16 12:26:48;;;;;;;8.10;4.47;;;15.20;48.40;;;;;;5075356;28;20115;-71
2022/02/16 12:29:27;;;;;;;13.60;5.13;;;15.20;48.10;;;;;;5075153;28;20024;-70
2022/02/16 12:31:58;;;;;;;10.00;4.45;;;15.20;47.80;;;;;;5093277;28;20028;-71
2022/02/16 12:34:26;;;;;;;6.90;4.30;;;15.30;48.00;;;;;;5093169;28;20047;-70
2022/02/16 12:37:09;;;;;;;6.53;4.32;;;15.40;48.10;;;;;;5075300;28;20020;-70
2022/02/16 12:39:36;;;;;;;8.77;4.97;;;15.50;47.70;;;;;;5075289;28;20028;-70
2022/02/16 12:42:09;;;;;;;13.88;4.13;;;15.60;46.90;;;;;;5075221;28;20082;-71